Station Historical Data
Daily Summary for April 11, 2017 Units:  English    Metric   Both
« Previous Day
Next Day »
Daily Weekly Monthly Yearly Custom
  High: Low: Average:
Temperature: 68.0 °F 44.5 °F 58.8 °F
Dew Point: 56.7 °F 40.5 °F 51.4 °F
Humidity: 87% 66% 77%
Wind Speed: 13.0mph 0.0mph 4mph
Wind Gust: 18.0mph - -
Wind- - SW
Pressure: 30.15 in 29.97 in -
Precipitation: 0.00 in    
Historical Graphs
 
 
Tabular Data for April 11, 2017
Time Temperature Dew Point Pressure Wind Wind Speed Wind Gust Humidity Rainfall Rate (Hourly)
00:04 59.2 °F 51.6 °F 29.98 in Calm   2.0 mph 76% 0.00 in
00:09 59.1 °F 51.5 °F 29.97 in Calm     76% 0.00 in
00:14 58.9 °F 51.3 °F 29.97 in Calm     76% 0.00 in
00:19 58.7 °F 51.2 °F 29.97 in Calm     76% 0.00 in
00:24 58.5 °F 51.0 °F 29.97 in Calm     76% 0.00 in
00:29 58.4 °F 50.9 °F 29.97 in SSE 1.0 mph 2.0 mph 76% 0.00 in
00:34 58.2 °F 50.7 °F 29.97 in Calm   2.0 mph 76% 0.00 in
00:39 58.0 °F 50.5 °F 29.97 in Calm   2.0 mph 76% 0.00 in
00:44 57.8 °F 50.6 °F 29.97 in SSE 1.0 mph 3.0 mph 77% 0.00 in
00:49 57.7 °F 50.5 °F 29.98 in SSE 1.0 mph 3.0 mph 77% 0.00 in
00:54 57.5 °F 50.7 °F 29.98 in SSE 3.0 mph 4.0 mph 78% 0.00 in
00:59 57.5 °F 50.7 °F 29.98 in South 2.0 mph 4.0 mph 78% 0.00 in
01:04 57.6 °F 50.8 °F 29.98 in South 3.0 mph 4.0 mph 78% 0.00 in
01:09 57.6 °F 51.1 °F 29.98 in South 2.0 mph 4.0 mph 79% 0.00 in
01:14 57.8 °F 51.3 °F 30.00 in SSW 2.0 mph 5.0 mph 79% 0.00 in
01:19 57.8 °F 51.3 °F 29.99 in WSW 1.0 mph 5.0 mph 79% 0.00 in
01:24 57.9 °F 51.4 °F 29.98 in Calm   3.0 mph 79% 0.00 in
01:29 57.9 °F 51.4 °F 29.98 in Calm     79% 0.00 in
01:34 58.0 °F 51.5 °F 29.99 in WSW 1.0 mph 2.0 mph 79% 0.00 in
01:39 57.9 °F 51.4 °F 29.98 in Calm   2.0 mph 79% 0.00 in
01:44 57.9 °F 51.4 °F 29.98 in Calm   2.0 mph 79% 0.00 in
01:49 57.9 °F 51.4 °F 29.97 in Calm     79% 0.00 in
01:59 57.9 °F 51.4 °F 29.97 in Calm     79% 0.00 in
02:04 57.8 °F 51.3 °F 29.97 in Calm     79% 0.00 in
02:09 57.8 °F 51.7 °F 29.98 in Calm     80% 0.00 in
02:14 57.8 °F 51.7 °F 29.98 in Calm   3.0 mph 80% 0.00 in
02:19 57.8 °F 51.7 °F 29.98 in Calm   3.0 mph 80% 0.00 in
02:24 57.8 °F 51.7 °F 29.99 in Calm   3.0 mph 80% 0.00 in
02:29 57.7 °F 51.6 °F 29.99 in SSW 1.0 mph 3.0 mph 80% 0.00 in
02:34 57.7 °F 51.2 °F 29.98 in South 2.0 mph 3.0 mph 79% 0.00 in
02:39 57.7 °F 51.6 °F 29.98 in South 2.0 mph 5.0 mph 80% 0.00 in
02:44 57.7 °F 51.2 °F 29.98 in South 2.0 mph 5.0 mph 79% 0.00 in
02:49 57.7 °F 51.2 °F 29.98 in South 1.0 mph 3.0 mph 79% 0.00 in
02:54 57.7 °F 51.2 °F 29.98 in SSW 2.0 mph 3.0 mph 79% 0.00 in
02:59 57.6 °F 51.1 °F 29.99 in SSW 1.0 mph 3.0 mph 79% 0.00 in
03:04 57.4 °F 50.9 °F 29.98 in South 2.0 mph 4.0 mph 79% 0.00 in
03:09 57.5 °F 51.4 °F 29.98 in South 2.0 mph 4.0 mph 80% 0.00 in
03:14 57.4 °F 51.3 °F 29.98 in South 2.0 mph 5.0 mph 80% 0.00 in
03:19 57.5 °F 51.7 °F 29.98 in SSW 1.0 mph 5.0 mph 81% 0.00 in
03:24 57.6 °F 52.1 °F 29.99 in SW 1.0 mph 9.0 mph 82% 0.00 in
03:29 58.0 °F 52.5 °F 29.99 in SSW 4.0 mph 8.0 mph 82% 0.00 in
03:34 58.5 °F 53.0 °F 29.99 in SW 3.0 mph 11.0 mph 82% 0.00 in
03:39 59.1 °F 53.3 °F 29.99 in SW 5.0 mph 11.0 mph 81% 0.00 in
03:44 59.7 °F 53.5 °F 29.99 in SW 6.0 mph 12.0 mph 80% 0.00 in
03:49 60.2 °F 53.3 °F 29.98 in SW 6.0 mph 12.0 mph 78% 0.00 in
03:54 60.5 °F 53.3 °F 29.98 in SW 6.0 mph 11.0 mph 77% 0.00 in
03:59 60.7 °F 53.1 °F 29.99 in SW 6.0 mph 11.0 mph 76% 0.00 in
04:04 60.8 °F 52.8 °F 30.00 in SW 6.0 mph 14.0 mph 75% 0.00 in
04:09 60.8 °F 52.8 °F 30.00 in SW 6.0 mph 10.0 mph 75% 0.00 in
04:14 60.7 °F 52.7 °F 29.99 in SW 7.0 mph 11.0 mph 75% 0.00 in
04:19 60.6 °F 52.3 °F 29.99 in WSW 5.0 mph 10.0 mph 74% 0.00 in
04:24 60.3 °F 52.3 °F 29.99 in SSW 6.0 mph 9.0 mph 75% 0.00 in
04:29 59.9 °F 52.0 °F 30.00 in South 5.0 mph 9.0 mph 75% 0.00 in
04:34 59.5 °F 51.6 °F 29.99 in SW 5.0 mph 10.0 mph 75% 0.00 in
04:39 59.0 °F 51.1 °F 30.00 in SW 5.0 mph 10.0 mph 75% 0.00 in
04:44 58.6 °F 51.1 °F 30.00 in SW 5.0 mph 10.0 mph 76% 0.00 in
04:49 58.4 °F 51.2 °F 30.00 in SW 5.0 mph 10.0 mph 77% 0.00 in
04:54 58.2 °F 51.0 °F 30.01 in SW 5.0 mph 11.0 mph 77% 0.00 in
04:59 57.9 °F 50.7 °F 30.01 in SW 6.0 mph 12.0 mph 77% 0.00 in
05:04 57.9 °F 50.7 °F 30.01 in SW 5.0 mph 12.0 mph 77% 0.00 in
05:09 57.8 °F 50.6 °F 30.02 in SSW 7.0 mph 14.0 mph 77% 0.00 in
05:14 57.8 °F 50.3 °F 30.02 in SW 7.0 mph 14.0 mph 76% 0.00 in
05:19 57.8 °F 50.3 °F 30.02 in WSW 12.0 mph 17.0 mph 76% 0.00 in
05:24 57.8 °F 50.3 °F 30.02 in SW 8.0 mph 17.0 mph 76% 0.00 in
05:29 57.7 °F 50.2 °F 30.01 in SSW 10.0 mph 17.0 mph 76% 0.00 in
05:39 57.4 °F 49.9 °F 30.02 in WSW 8.0 mph 14.0 mph 76% 0.00 in
05:44 57.1 °F 49.6 °F 30.02 in WSW 7.0 mph 14.0 mph 76% 0.00 in
05:49 56.9 °F 49.8 °F 30.02 in SW 6.0 mph 14.0 mph 77% 0.00 in
05:54 56.6 °F 49.5 °F 30.02 in SSW 4.0 mph 11.0 mph 77% 0.00 in
05:59 56.3 °F 49.2 °F 30.01 in WSW 8.0 mph 10.0 mph 77% 0.00 in
06:04 56.0 °F 49.2 °F 30.01 in WSW 2.0 mph 9.0 mph 78% 0.00 in
06:09 55.7 °F 49.3 °F 30.01 in SW 9.0 mph 9.0 mph 79% 0.00 in
06:14 55.6 °F 49.5 °F 30.01 in SW 5.0 mph 11.0 mph 80% 0.00 in
06:19 55.5 °F 49.4 °F 30.01 in SW 5.0 mph 11.0 mph 80% 0.00 in
06:24 55.4 °F 49.3 °F 30.00 in SW 4.0 mph 7.0 mph 80% 0.00 in
06:29 55.4 °F 49.7 °F 29.99 in SSW 4.0 mph 8.0 mph 81% 0.00 in
06:34 55.6 °F 49.9 °F 30.00 in SSW 4.0 mph 11.0 mph 81% 0.00 in
06:39 55.8 °F 50.4 °F 30.00 in SSW 4.0 mph 11.0 mph 82% 0.00 in
06:44 56.1 °F 50.7 °F 30.00 in SSW 7.0 mph 9.0 mph 82% 0.00 in
06:49 56.4 °F 51.0 °F 30.00 in SSW 5.0 mph 9.0 mph 82% 0.01 in
06:54 56.7 °F 51.3 °F 30.00 in SW 4.0 mph 7.0 mph 82% 0.01 in
06:59 56.8 °F 51.0 °F 30.01 in WSW 6.0 mph 6.0 mph 81% 0.01 in
07:04 57.0 °F 51.2 °F 30.02 in WSW 2.0 mph 7.0 mph 81% 0.01 in
07:09 57.3 °F 51.2 °F 30.02 in SW 4.0 mph 7.0 mph 80% 0.01 in
07:14 57.5 °F 51.4 °F 30.02 in South 2.0 mph 7.0 mph 80% 0.01 in
07:19 57.6 °F 51.1 °F 30.02 in SSW 3.0 mph 7.0 mph 79% 0.01 in
07:24 57.8 °F 51.3 °F 30.01 in SSW 3.0 mph 7.0 mph 79% 0.01 in
07:29 57.9 °F 51.4 °F 30.02 in SSW 3.0 mph 7.0 mph 79% 0.01 in
07:34 58.1 °F 51.6 °F 30.02 in SSW 3.0 mph 7.0 mph 79% 0.01 in
07:39 58.3 °F 51.5 °F 30.01 in South 4.0 mph 6.0 mph 78% 0.01 in
07:44 58.6 °F 51.8 °F 30.01 in South 3.0 mph 5.0 mph 78% 0.01 in
07:49 58.8 °F 52.0 °F 30.01 in SSW 3.0 mph 5.0 mph 78% 0.00 in
07:54 58.9 °F 52.1 °F 30.01 in SW 1.0 mph 5.0 mph 78% 0.00 in
07:59 58.9 °F 52.1 °F 30.01 in Calm   3.0 mph 78% 0.00 in
08:04 59.0 °F 52.1 °F 30.02 in Calm   2.0 mph 78% 0.00 in
08:09 59.5 °F 52.3 °F 30.01 in Calm   3.0 mph 77% 0.00 in
08:14 59.8 °F 52.6 °F 30.01 in West 2.0 mph 4.0 mph 77% 0.00 in
08:19 60.2 °F 52.6 °F 30.01 in West 1.0 mph 4.0 mph 76% 0.00 in
08:24 60.5 °F 52.9 °F 30.01 in SW 3.0 mph 4.0 mph 76% 0.00 in
08:29 61.1 °F 53.5 °F 30.01 in SW 4.0 mph 6.0 mph 76% 0.00 in
08:34 61.8 °F 53.8 °F 30.01 in WSW 4.0 mph 4.0 mph 75% 0.00 in
08:39 62.0 °F 53.6 °F 30.02 in WSW 3.0 mph 6.0 mph 74% 0.00 in
08:44 62.2 °F 53.8 °F 30.02 in WSW 3.0 mph 5.0 mph 74% 0.00 in
08:49 62.4 °F 53.6 °F 30.02 in WSW 4.0 mph 5.0 mph 73% 0.00 in
08:54 62.7 °F 53.9 °F 30.02 in WSW 2.0 mph 5.0 mph 73% 0.00 in
08:59 62.9 °F 54.1 °F 30.03 in WSW 3.0 mph 7.0 mph 73% 0.00 in
09:04 63.2 °F 54.0 °F 30.03 in WSW 3.0 mph 8.0 mph 72% 0.00 in
09:09 63.3 °F 53.7 °F 30.03 in WSW 3.0 mph 8.0 mph 71% 0.00 in
09:19 63.2 °F 53.3 °F 30.04 in SW 3.0 mph 6.0 mph 70% 0.00 in
09:24 63.3 °F 53.3 °F 30.03 in WSW 3.0 mph 9.0 mph 70% 0.00 in
09:29 63.2 °F 52.9 °F 30.03 in WSW 3.0 mph 9.0 mph 69% 0.00 in
09:34 63.1 °F 53.2 °F 30.03 in WSW 4.0 mph 7.0 mph 70% 0.00 in
09:39 63.1 °F 53.2 °F 30.03 in SSW 2.0 mph 8.0 mph 70% 0.00 in
09:44 63.0 °F 53.1 °F 30.03 in WSW 3.0 mph 7.0 mph 70% 0.00 in
09:49 63.2 °F 53.3 °F 30.04 in WSW 6.0 mph 8.0 mph 70% 0.00 in
09:54 63.4 °F 53.0 °F 30.04 in West 4.0 mph 11.0 mph 69% 0.00 in
09:59 63.8 °F 53.4 °F 30.04 in WSW 5.0 mph 11.0 mph 69% 0.00 in
10:04 63.8 °F 53.0 °F 30.04 in WSW 4.0 mph 9.0 mph 68% 0.00 in
10:09 63.5 °F 52.7 °F 30.04 in WSW 4.0 mph 10.0 mph 68% 0.00 in
10:14 63.4 °F 53.0 °F 30.04 in West 4.0 mph 6.0 mph 69% 0.00 in
10:19 63.2 °F 52.9 °F 30.04 in West 5.0 mph 7.0 mph 69% 0.00 in
10:24 63.3 °F 52.6 °F 30.04 in West 3.0 mph 9.0 mph 68% 0.00 in
10:29 63.5 °F 53.1 °F 30.04 in WSW 3.0 mph 9.0 mph 69% 0.00 in
10:34 63.6 °F 53.2 °F 30.04 in WSW 2.0 mph 5.0 mph 69% 0.00 in
10:39 63.9 °F 53.1 °F 30.04 in WSW 3.0 mph 5.0 mph 68% 0.00 in
10:44 63.9 °F 53.1 °F 30.04 in SW 3.0 mph 6.0 mph 68% 0.00 in
10:49 63.7 °F 52.5 °F 30.04 in SW 3.0 mph 7.0 mph 67% 0.00 in
10:54 63.4 °F 52.7 °F 30.04 in SW 3.0 mph 8.0 mph 68% 0.00 in
10:59 63.2 °F 52.5 °F 30.05 in SW 3.0 mph 7.0 mph 68% 0.00 in
11:04 63.4 °F 53.0 °F 30.05 in SW 3.0 mph 7.0 mph 69% 0.00 in
11:09 63.6 °F 53.2 °F 30.05 in SW 5.0 mph 7.0 mph 69% 0.00 in
11:19 63.4 °F 53.0 °F 30.05 in SW 2.0 mph 4.0 mph 69% 0.00 in
11:24 63.5 °F 53.1 °F 30.05 in WSW 1.0 mph 4.0 mph 69% 0.00 in
11:29 63.4 °F 53.0 °F 30.05 in WSW 2.0 mph 5.0 mph 69% 0.00 in
11:34 63.3 °F 52.6 °F 30.05 in SW 2.0 mph 5.0 mph 68% 0.00 in
11:39 63.3 °F 52.6 °F 30.05 in SW 2.0 mph 5.0 mph 68% 0.00 in
11:44 63.3 °F 53.3 °F 30.06 in SW 2.0 mph 4.0 mph 70% 0.00 in
11:49 63.1 °F 52.8 °F 30.06 in WSW 2.0 mph 4.0 mph 69% 0.00 in
11:54 62.8 °F 52.5 °F 30.06 in WSW 2.0 mph 5.0 mph 69% 0.00 in
11:59 62.5 °F 52.6 °F 30.06 in SW 3.0 mph 5.0 mph 70% 0.00 in
12:04 62.5 °F 52.6 °F 30.06 in South 1.0 mph 4.0 mph 70% 0.00 in
12:09 62.3 °F 52.4 °F 30.06 in SW 1.0 mph 6.0 mph 70% 0.00 in
12:14 62.1 °F 52.6 °F 30.07 in WSW 2.0 mph 5.0 mph 71% 0.00 in
12:19 61.9 °F 52.8 °F 30.07 in SSW 3.0 mph 7.0 mph 72% 0.00 in
12:24 61.5 °F 52.8 °F 30.05 in South 3.0 mph 8.0 mph 73% 0.00 in
12:29 60.8 °F 52.8 °F 30.08 in WSW 3.0 mph 10.0 mph 75% 0.00 in
12:34 59.6 °F 52.0 °F 30.06 in WSW 6.0 mph 12.0 mph 76% 0.00 in
12:39 58.6 °F 51.8 °F 30.08 in SW 6.0 mph 12.0 mph 78% 0.00 in
12:44 58.1 °F 51.6 °F 30.07 in SW 5.0 mph 7.0 mph 79% 0.00 in
12:49 57.9 °F 51.8 °F 30.05 in South 4.0 mph 7.0 mph 80% 0.00 in
12:54 58.1 °F 52.3 °F 30.07 in SW 3.0 mph 6.0 mph 81% 0.00 in
12:59 58.2 °F 52.4 °F 30.05 in SSW 3.0 mph 6.0 mph 81% 0.00 in
13:04 59.0 °F 53.2 °F 30.07 in SSW 4.0 mph 7.0 mph 81% 0.00 in
13:09 59.3 °F 53.5 °F 30.08 in SSW 4.0 mph 8.0 mph 81% 0.00 in
13:14 59.8 °F 54.0 °F 30.07 in SW 4.0 mph 8.0 mph 81% 0.00 in
13:19 60.4 °F 54.5 °F 30.07 in SSW 3.0 mph 9.0 mph 81% 0.00 in
13:24 61.1 °F 55.2 °F 30.08 in SSW 3.0 mph 8.0 mph 81% 0.00 in
13:29 61.4 °F 55.2 °F 30.08 in SSW 5.0 mph 8.0 mph 80% 0.00 in
13:34 61.4 °F 54.8 °F 30.08 in SSW 5.0 mph 12.0 mph 79% 0.00 in
13:39 61.3 °F 54.7 °F 30.08 in SSW 2.0 mph 10.0 mph 79% 0.00 in
13:44 61.2 °F 54.6 °F 30.07 in South 4.0 mph 8.0 mph 79% 0.00 in
13:49 61.0 °F 54.8 °F 30.06 in SSW 3.0 mph 9.0 mph 80% 0.00 in
13:54 61.0 °F 54.8 °F 30.06 in SSW 4.0 mph 9.0 mph 80% 0.00 in
13:59 61.2 °F 55.0 °F 30.07 in SW 4.0 mph 8.0 mph 80% 0.00 in
14:04 61.4 °F 54.8 °F 30.07 in SSW 5.0 mph 12.0 mph 79% 0.00 in
14:09 61.6 °F 54.7 °F 30.07 in SSW 5.0 mph 12.0 mph 78% 0.00 in
14:14 61.8 °F 54.9 °F 30.07 in South 5.0 mph 11.0 mph 78% 0.00 in
14:19 62.0 °F 54.7 °F 30.07 in SW 7.0 mph 10.0 mph 77% 0.00 in
14:24 62.2 °F 54.5 °F 30.07 in SSW 10.0 mph 13.0 mph 76% 0.00 in
14:29 62.3 °F 54.3 °F 30.07 in South 3.0 mph 13.0 mph 75% 0.00 in
14:34 62.3 °F 54.3 °F 30.07 in SSW 5.0 mph 13.0 mph 75% 0.00 in
14:39 62.6 °F 54.6 °F 30.06 in SSW 6.0 mph 14.0 mph 75% 0.00 in
14:44 62.9 °F 54.9 °F 30.06 in SW 1.0 mph 8.0 mph 75% 0.00 in
14:49 62.8 °F 54.8 °F 30.07 in SSW 6.0 mph 11.0 mph 75% 0.00 in
14:54 62.6 °F 54.2 °F 30.07 in South 5.0 mph 14.0 mph 74% 0.00 in
14:59 62.3 °F 54.3 °F 30.06 in SW 5.0 mph 15.0 mph 75% 0.00 in
15:04 62.4 °F 54.7 °F 30.06 in SSW 7.0 mph 15.0 mph 76% 0.00 in
15:09 63.3 °F 55.6 °F 30.06 in SSW 6.0 mph 10.0 mph 76% 0.00 in
15:14 64.0 °F 55.5 °F 30.06 in SSW 6.0 mph 13.0 mph 74% 0.00 in
15:19 64.5 °F 56.0 °F 30.06 in WSW 3.0 mph 11.0 mph 74% 0.00 in
15:24 65.4 °F 56.1 °F 30.06 in SSW 5.0 mph 9.0 mph 72% 0.00 in
15:29 66.0 °F 56.3 °F 30.06 in SSW 5.0 mph 10.0 mph 71% 0.00 in
15:34 66.8 °F 56.3 °F 30.05 in SSW 6.0 mph 12.0 mph 69% 0.00 in
15:39 65.8 °F 55.3 °F 30.06 in SSW 6.0 mph 13.0 mph 69% 0.00 in
15:44 66.2 °F 56.5 °F 30.05 in SW 5.0 mph 11.0 mph 71% 0.00 in
15:49 66.4 °F 55.9 °F 30.05 in SSW 6.0 mph 15.0 mph 69% 0.00 in
15:54 66.7 °F 56.2 °F 30.05 in South 6.0 mph 12.0 mph 69% 0.00 in
16:04 67.2 °F 56.7 °F 30.05 in SW 6.0 mph 12.0 mph 69% 0.00 in
16:09 68.0 °F 56.2 °F 30.05 in SW 6.0 mph 12.0 mph 66% 0.00 in
16:14 67.0 °F 55.7 °F 30.05 in SW 6.0 mph 13.0 mph 67% 0.00 in
16:19 66.4 °F 55.1 °F 30.05 in SW 6.0 mph 16.0 mph 67% 0.00 in
16:24 66.2 °F 55.7 °F 30.05 in West 3.0 mph 11.0 mph 69% 0.00 in
16:29 66.0 °F 55.1 °F 30.05 in WSW 7.0 mph 12.0 mph 68% 0.00 in
16:34 65.4 °F 54.6 °F 30.05 in SW 10.0 mph 13.0 mph 68% 0.00 in
16:44 64.8 °F 54.8 °F 30.05 in SW 6.0 mph 11.0 mph 70% 0.00 in
16:49 64.4 °F 54.4 °F 30.05 in WSW 7.0 mph 11.0 mph 70% 0.00 in
16:54 64.2 °F 54.6 °F 30.05 in SSW 6.0 mph 9.0 mph 71% 0.00 in
16:59 63.9 °F 54.3 °F 30.05 in South 5.0 mph 9.0 mph 71% 0.00 in
17:04 63.9 °F 54.7 °F 30.05 in SW 3.0 mph 7.0 mph 72% 0.00 in
17:09 63.9 °F 54.3 °F 30.05 in SW 4.0 mph 8.0 mph 71% 0.00 in
17:14 63.7 °F 54.5 °F 30.06 in SW 4.0 mph 8.0 mph 72% 0.00 in
17:19 63.4 °F 54.6 °F 30.05 in SW 4.0 mph 10.0 mph 73% 0.00 in
17:24 63.0 °F 54.2 °F 30.05 in WSW 5.0 mph 10.0 mph 73% 0.00 in
17:29 62.8 °F 54.4 °F 30.06 in WSW 5.0 mph 9.0 mph 74% 0.00 in
17:34 62.6 °F 53.8 °F 30.06 in WSW 4.0 mph 9.0 mph 73% 0.00 in
17:39 62.5 °F 54.1 °F 30.05 in SW 3.0 mph 5.0 mph 74% 0.00 in
17:44 62.6 °F 54.2 °F 30.06 in SW 3.0 mph 8.0 mph 74% 0.00 in
17:49 62.7 °F 54.3 °F 30.06 in SW 3.0 mph 8.0 mph 74% 0.00 in
17:54 62.8 °F 54.0 °F 30.05 in SSW 4.0 mph 8.0 mph 73% 0.00 in
17:59 62.7 °F 54.3 °F 30.06 in WSW 6.0 mph 9.0 mph 74% 0.00 in
18:04 62.6 °F 54.2 °F 30.06 in SSW 5.0 mph 11.0 mph 74% 0.00 in
18:09 62.3 °F 53.9 °F 30.06 in SSW 7.0 mph 8.0 mph 74% 0.00 in
18:14 62.0 °F 53.6 °F 30.06 in SW 5.0 mph 8.0 mph 74% 0.00 in
18:19 61.6 °F 53.6 °F 30.07 in SW 5.0 mph 10.0 mph 75% 0.00 in
18:24 61.3 °F 53.7 °F 30.06 in WSW 5.0 mph 10.0 mph 76% 0.00 in
18:34 61.2 °F 53.6 °F 30.05 in WSW 4.0 mph 9.0 mph 76% 0.00 in
18:39 60.8 °F 53.2 °F 30.05 in WSW 3.0 mph 10.0 mph 76% 0.00 in
18:44 60.6 °F 53.3 °F 30.05 in WSW 4.0 mph 10.0 mph 77% 0.00 in
18:49 60.5 °F 53.3 °F 30.05 in SW 6.0 mph 6.0 mph 77% 0.00 in
18:54 60.4 °F 53.2 °F 30.05 in WSW 4.0 mph 6.0 mph 77% 0.00 in
18:59 60.2 °F 53.0 °F 30.05 in SW 3.0 mph 4.0 mph 77% 0.00 in
19:04 59.9 °F 52.7 °F 30.05 in SSW 3.0 mph 4.0 mph 77% 0.00 in
19:09 59.6 °F 52.7 °F 30.05 in SSW 2.0 mph 5.0 mph 78% 0.00 in
19:14 59.3 °F 52.8 °F 30.05 in South 4.0 mph 6.0 mph 79% 0.00 in
19:19 59.0 °F 52.5 °F 30.04 in SSW 3.0 mph 6.0 mph 79% 0.00 in
19:24 58.8 °F 52.3 °F 30.04 in SSW 3.0 mph 7.0 mph 79% 0.00 in
19:29 58.4 °F 52.3 °F 30.04 in SSW 3.0 mph 7.0 mph 80% 0.00 in
19:34 58.1 °F 52.0 °F 30.04 in SSW 3.0 mph 5.0 mph 80% 0.00 in
19:39 57.8 °F 51.7 °F 30.04 in SSW 1.0 mph 7.0 mph 80% 0.00 in
19:44 57.6 °F 51.8 °F 30.05 in WSW 3.0 mph 6.0 mph 81% 0.00 in
19:49 57.4 °F 51.6 °F 30.04 in SSW 3.0 mph 6.0 mph 81% 0.00 in
19:54 57.3 °F 51.5 °F 30.05 in SSW 2.0 mph 5.0 mph 81% 0.00 in
19:59 57.2 °F 51.4 °F 30.05 in WSW 5.0 mph 10.0 mph 81% 0.00 in
20:04 57.1 °F 51.3 °F 30.05 in West 3.0 mph 9.0 mph 81% 0.00 in
20:09 57.2 °F 51.8 °F 30.05 in WSW 3.0 mph 7.0 mph 82% 0.00 in
20:14 57.3 °F 52.2 °F 30.06 in West 4.0 mph 8.0 mph 83% 0.00 in
20:19 57.7 °F 52.9 °F 30.05 in WSW 4.0 mph 10.0 mph 84% 0.00 in
20:24 58.1 °F 53.3 °F 30.05 in WSW 5.0 mph 10.0 mph 84% 0.00 in
20:29 58.2 °F 53.4 °F 30.05 in WSW 4.0 mph 8.0 mph 84% 0.00 in
20:34 58.3 °F 53.5 °F 30.05 in West 3.0 mph 8.0 mph 84% 0.00 in
20:39 58.3 °F 53.5 °F 30.06 in WSW 3.0 mph 7.0 mph 84% 0.00 in
20:44 58.2 °F 53.1 °F 30.06 in WSW 3.0 mph 6.0 mph 83% 0.00 in
20:49 57.9 °F 52.4 °F 30.07 in SW 4.0 mph 6.0 mph 82% 0.00 in
20:54 57.1 °F 51.3 °F 30.07 in SW 4.0 mph 8.0 mph 81% 0.00 in
20:59 56.4 °F 50.6 °F 30.07 in SW 6.0 mph 13.0 mph 81% 0.00 in
21:04 55.2 °F 49.1 °F 30.08 in SW 7.0 mph 15.0 mph 80% 0.00 in
21:09 53.8 °F 48.1 °F 30.09 in SSW 7.0 mph 15.0 mph 81% 0.00 in
21:14 52.8 °F 47.1 °F 30.09 in SW 11.0 mph 18.0 mph 81% 0.00 in
21:19 52.4 °F 46.4 °F 30.09 in SW 8.0 mph 18.0 mph 80% 0.00 in
21:24 52.2 °F 45.9 °F 30.09 in WSW 6.0 mph 16.0 mph 79% 0.00 in
21:29 51.8 °F 45.2 °F 30.10 in SW 13.0 mph 18.0 mph 78% 0.00 in
21:34 51.4 °F 44.8 °F 30.10 in WSW 8.0 mph 15.0 mph 78% 0.00 in
21:39 51.0 °F 44.4 °F 30.10 in SSW 11.0 mph 13.0 mph 78% 0.00 in
21:44 50.9 °F 44.3 °F 30.10 in SW 6.0 mph 11.0 mph 78% 0.00 in
21:49 50.8 °F 44.2 °F 30.11 in WSW 4.0 mph 12.0 mph 78% 0.00 in
21:54 50.5 °F 43.9 °F 30.11 in SW 6.0 mph 12.0 mph 78% 0.00 in
21:59 49.9 °F 43.3 °F 30.11 in SW 7.0 mph 17.0 mph 78% 0.00 in
22:04 49.4 °F 43.2 °F 30.12 in WSW 8.0 mph 17.0 mph 79% 0.00 in
22:09 49.0 °F 42.8 °F 30.12 in SW 7.0 mph 13.0 mph 79% 0.00 in
22:14 48.6 °F 42.7 °F 30.12 in SW 6.0 mph 11.0 mph 80% 0.00 in
22:19 48.2 °F 42.3 °F 30.12 in SSW 7.0 mph 14.0 mph 80% 0.00 in
22:24 47.7 °F 42.2 °F 30.13 in SW 8.0 mph 15.0 mph 81% 0.00 in
22:29 47.2 °F 41.7 °F 30.13 in SW 5.0 mph 14.0 mph 81% 0.00 in
22:34 46.8 °F 41.6 °F 30.13 in WSW 7.0 mph 13.0 mph 82% 0.00 in
22:39 46.4 °F 41.2 °F 30.13 in WSW 7.0 mph 12.0 mph 82% 0.00 in
22:44 46.0 °F 41.1 °F 30.13 in SW 6.0 mph 9.0 mph 83% 0.00 in
22:49 45.7 °F 40.8 °F 30.13 in SW 2.0 mph 9.0 mph 83% 0.00 in
22:54 45.3 °F 40.7 °F 30.13 in SW 4.0 mph 9.0 mph 84% 0.00 in
22:59 45.2 °F 41.0 °F 30.13 in SW 4.0 mph 9.0 mph 85% 0.00 in
23:04 45.0 °F 40.8 °F 30.14 in SW 5.0 mph 11.0 mph 85% 0.00 in
23:09 44.8 °F 40.6 °F 30.14 in SW 5.0 mph 11.0 mph 85% 0.00 in
23:14 44.7 °F 40.5 °F 30.14 in SW 5.0 mph 9.0 mph 85% 0.00 in
23:19 44.5 °F 40.6 °F 30.14 in SW 6.0 mph 7.0 mph 86% 0.00 in
23:29 44.5 °F 40.6 °F 30.14 in SW 3.0 mph 5.0 mph 86% 0.00 in
23:34 44.7 °F 41.1 °F 30.14 in SW 5.0 mph 6.0 mph 87% 0.00 in
23:39 44.6 °F 41.0 °F 30.14 in SW 3.0 mph 7.0 mph 87% 0.00 in
23:44 44.7 °F 41.1 °F 30.15 in SSW 1.0 mph 8.0 mph 87% 0.00 in
23:49 44.7 °F 41.1 °F 30.15 in SW 3.0 mph 9.0 mph 87% 0.00 in
23:54 44.7 °F 41.1 °F 30.15 in SW 4.0 mph 9.0 mph 87% 0.00 in
23:59 44.6 °F 41.0 °F 30.15 in SW 5.0 mph 9.0 mph 87% 0.00 in
Buffalo, New York, USA
Compliments of Weather Underground - 2.25 mb